createdAt,value
2023-05-02T00:01:54.910Z,43.33
2023-05-02T00:06:58.494Z,41.47
2023-05-02T00:12:02.527Z,41.95
2023-05-02T00:17:06.750Z,42.25
2023-05-02T00:22:09.610Z,39.97
2023-05-02T00:27:12.466Z,42.70
2023-05-02T00:32:16.630Z,41.67
2023-05-02T00:37:19.549Z,44.05
2023-05-02T00:42:22.464Z,40.55
2023-05-02T00:47:27.147Z,41.22
2023-05-02T00:52:30.315Z,40.70
2023-05-02T00:57:34.704Z,40.75
2023-05-02T01:02:51.927Z,42.85
2023-05-02T01:08:15.139Z,41.42
2023-05-02T01:13:22.894Z,41.47
2023-05-02T01:18:32.454Z,41.65
2023-05-02T01:23:44.423Z,40.65
2023-05-02T01:29:00.918Z,41.28
2023-05-02T01:34:05.345Z,43.38
2023-05-02T01:39:10.951Z,42.10
2023-05-02T01:44:17.847Z,40.78
2023-05-02T01:49:21.931Z,41.15
2023-05-02T01:54:27.499Z,40.90
2023-05-02T01:59:34.312Z,40.53
2023-05-02T02:04:40.794Z,41.42
2023-05-02T02:09:46.150Z,43.25
2023-05-02T02:14:58.104Z,41.38
2023-05-02T02:20:04.385Z,41.35
2023-05-02T02:25:12.330Z,43.88
2023-05-02T02:30:16.788Z,43.30
2023-05-02T02:35:20.064Z,41.50
2023-05-02T02:40:31.232Z,41.90
2023-05-02T02:45:40.123Z,42.67
2023-05-02T02:50:55.989Z,45.55
2023-05-02T02:56:08.015Z,41.33
2023-05-02T03:01:16.869Z,41.80
2023-05-02T03:06:20.188Z,41.30
2023-05-02T03:11:23.515Z,41.75
2023-05-02T03:16:36.126Z,42.58
2023-05-02T03:21:41.755Z,44.67
2023-05-02T03:26:51.065Z,41.42
2023-05-02T03:32:02.010Z,48.03
2023-05-02T03:37:05.260Z,44.90
2023-05-02T03:42:08.597Z,43.80
2023-05-02T03:47:13.696Z,44.85
2023-05-02T03:52:18.009Z,43.22
2023-05-02T03:57:22.258Z,42.28
2023-05-02T04:02:27.247Z,40.85
2023-05-02T04:07:30.789Z,42.15
2023-05-02T04:12:37.832Z,42.50
2023-05-02T04:17:42.590Z,43.92
2023-05-02T04:22:48.078Z,42.25
2023-05-02T04:27:51.557Z,43.38
2023-05-02T04:32:58.977Z,41.75
2023-05-02T04:38:06.157Z,41.65
2023-05-02T04:43:09.125Z,42.03
2023-05-02T04:48:18.533Z,42.30
2023-05-02T04:53:23.429Z,42.17
2023-05-02T04:58:26.637Z,41.10
2023-05-02T05:03:40.675Z,41.25
2023-05-02T05:08:45.630Z,42.05
2023-05-02T05:13:50.251Z,42.85
2023-05-02T05:18:54.528Z,43.85
2023-05-02T05:23:57.575Z,41.53
2023-05-02T05:29:04.015Z,43.38
2023-05-02T05:34:16.255Z,45.03
2023-05-02T05:39:20.561Z,42.90
2023-05-02T05:44:25.939Z,56.92
2023-05-02T05:49:30.703Z,45.13
2023-05-02T05:54:33.681Z,44.03
2023-05-02T05:59:37.323Z,43.55
2023-05-02T06:04:43.221Z,43.78
2023-05-02T06:09:47.147Z,42.17
2023-05-02T06:14:51.776Z,45.63
2023-05-02T06:19:56.462Z,44.47
2023-05-02T06:24:59.395Z,47.83
2023-05-02T06:30:02.724Z,44.78
2023-05-02T06:35:07.872Z,44.13
2023-05-02T06:40:11.681Z,45.05
2023-05-02T06:45:14.604Z,46.45
2023-05-02T06:50:19.089Z,45.92
2023-05-02T06:55:22.097Z,47.58
2023-05-02T07:00:25.110Z,46.85
2023-05-02T07:05:30.840Z,49.33
2023-05-02T07:10:34.855Z,45.90
2023-05-02T07:15:37.710Z,48.80
2023-05-02T07:20:42.482Z,48.88
2023-05-02T07:25:45.547Z,42.42
2023-05-02T07:30:48.387Z,43.10
2023-05-02T07:35:52.724Z,48.63
2023-05-02T07:40:59.521Z,46.25
2023-05-02T07:46:06.062Z,49.92
2023-05-02T07:51:11.576Z,53.22
2023-05-02T07:56:14.408Z,51.90
2023-05-02T08:01:17.349Z,47.83
2023-05-02T08:06:22.565Z,50.17
2023-05-02T08:11:26.058Z,48.88
2023-05-02T08:16:29.009Z,47.47
2023-05-02T08:21:33.377Z,50.50
2023-05-02T08:26:36.415Z,49.35
2023-05-02T08:31:39.574Z,50.80
2023-05-02T08:36:43.746Z,49.80
2023-05-02T08:41:46.571Z,47.47
2023-05-02T08:46:51.972Z,49.25
2023-05-02T08:51:57.751Z,50.65
2023-05-02T08:57:03.516Z,49.50
2023-05-02T09:02:13.522Z,51.70
2023-05-02T09:07:17.714Z,50.30
2023-05-02T09:12:26.417Z,51.10
2023-05-02T09:17:40.807Z,52.30
2023-05-02T09:22:51.583Z,53.17
2023-05-02T09:27:56.073Z,51.28
2023-05-02T09:32:59.115Z,51.20
2023-05-02T09:38:03.590Z,52.03
2023-05-02T09:43:15.762Z,51.97
2023-05-02T09:48:18.654Z,54.35
2023-05-02T09:53:23.591Z,53.15
2023-05-02T09:58:26.575Z,55.65
2023-05-02T10:03:32.028Z,57.22
2023-05-02T10:08:36.470Z,54.30
2023-05-02T10:13:42.823Z,56.55
2023-05-02T10:18:52.547Z,58.13
2023-05-02T10:23:57.395Z,61.28
2023-05-02T10:29:01.494Z,57.03
2023-05-02T10:34:05.556Z,51.42
2023-05-02T10:39:09.755Z,56.08
2023-05-02T10:44:12.629Z,54.70
2023-05-02T10:49:15.621Z,55.17
2023-05-02T10:54:24.293Z,56.38
2023-05-02T10:59:28.541Z,54.13
2023-05-02T11:05:00.044Z,58.22
2023-05-02T11:10:29.595Z,57.90
2023-05-02T11:16:00.364Z,59.13
2023-05-02T11:21:29.661Z,56.42
2023-05-02T11:26:33.985Z,60.20
2023-05-02T11:32:04.289Z,55.53
2023-05-02T11:37:12.924Z,57.13
2023-05-02T11:42:33.070Z,57.60
2023-05-02T11:47:36.049Z,57.40
2023-05-02T11:52:47.024Z,58.80
2023-05-02T11:57:51.442Z,59.08
2023-05-02T12:02:54.531Z,55.75
2023-05-02T12:07:57.420Z,54.88
2023-05-02T12:13:05.881Z,52.50
2023-05-02T12:18:09.476Z,55.67
2023-05-02T12:23:13.261Z,54.05
2023-05-02T12:28:19.410Z,53.53
2023-05-02T12:33:22.380Z,54.92
2023-05-02T12:38:25.745Z,54.38
2023-05-02T12:43:45.934Z,58.28
2023-05-02T12:49:02.780Z,56.15
2023-05-02T12:54:06.725Z,59.10
2023-05-02T12:59:25.572Z,63.45
2023-05-02T13:04:35.662Z,66.53
2023-05-02T13:09:38.730Z,60.28
2023-05-02T13:14:42.973Z,57.75
2023-05-02T13:19:57.794Z,55.60
2023-05-02T13:25:03.681Z,56.97
2023-05-02T13:30:10.431Z,53.47
2023-05-02T13:35:14.044Z,53.92
2023-05-02T13:40:17.139Z,53.05
2023-05-02T13:45:21.706Z,51.58
2023-05-02T13:50:24.534Z,53.58
2023-05-02T13:55:27.446Z,50.20
2023-05-02T14:00:39.706Z,51.22
2023-05-02T14:05:43.828Z,52.95
2023-05-02T14:10:46.814Z,51.42
2023-05-02T14:15:51.310Z,49.35
2023-05-02T14:21:04.064Z,44.92
2023-05-02T14:26:07.084Z,45.10
2023-05-02T14:31:11.561Z,43.17
2023-05-02T14:36:14.579Z,44.15
2023-05-02T14:41:17.584Z,43.83
2023-05-02T14:46:21.947Z,44.90
2023-05-02T14:51:24.908Z,44.92
2023-05-02T14:56:28.140Z,44.53
2023-05-02T15:01:33.465Z,43.70
2023-05-02T15:06:37.064Z,43.83
2023-05-02T15:11:40.104Z,44.80
2023-05-02T15:16:44.688Z,45.28
2023-05-02T15:21:49.887Z,43.88
2023-05-02T15:26:53.162Z,43.08
2023-05-02T15:31:59.617Z,45.03
2023-05-02T15:37:02.600Z,43.30
2023-05-02T15:42:06.493Z,43.75
2023-05-02T15:47:10.711Z,44.75
2023-05-02T15:52:14.012Z,44.85
2023-05-02T15:57:16.911Z,43.33
2023-05-02T16:02:21.722Z,43.45
2023-05-02T16:07:24.693Z,43.85
2023-05-02T16:12:27.682Z,43.95
2023-05-02T16:17:31.902Z,44.00
2023-05-02T16:22:34.954Z,44.22
2023-05-02T16:27:43.047Z,43.30
2023-05-02T16:32:48.457Z,44.00
2023-05-02T16:37:57.366Z,45.30
2023-05-02T16:43:00.236Z,44.65
2023-05-02T16:48:05.135Z,44.22
2023-05-02T16:53:08.211Z,45.05
2023-05-02T16:58:11.237Z,43.40
2023-05-02T17:03:15.676Z,43.17
2023-05-02T17:08:18.606Z,42.63
2023-05-02T17:13:21.478Z,42.65
2023-05-02T17:18:26.832Z,43.20
2023-05-02T17:23:31.074Z,42.17
2023-05-02T17:28:33.934Z,43.00
2023-05-02T17:33:39.306Z,42.22
2023-05-02T17:38:42.632Z,42.97
2023-05-02T17:43:45.551Z,42.45
2023-05-02T17:48:49.968Z,41.65
2023-05-02T17:53:56.376Z,42.92
2023-05-02T17:59:00.355Z,43.30
2023-05-02T18:04:05.046Z,41.03
2023-05-02T18:09:08.735Z,41.95
2023-05-02T18:14:14.330Z,41.90
2023-05-02T18:19:18.705Z,41.70
2023-05-02T18:24:21.674Z,42.05
2023-05-02T18:29:25.335Z,43.75
2023-05-02T18:34:33.205Z,42.08
2023-05-02T18:39:36.677Z,41.08
2023-05-02T18:44:39.556Z,42.42
2023-05-02T18:49:44.312Z,42.90
2023-05-02T18:54:47.323Z,42.38
2023-05-02T18:59:50.309Z,42.08
2023-05-02T19:04:55.608Z,42.50
2023-05-02T19:09:58.550Z,41.50
2023-05-02T19:15:01.758Z,42.83
2023-05-02T19:20:07.335Z,41.88
2023-05-02T19:25:13.057Z,44.30
2023-05-02T19:30:18.266Z,46.30
2023-05-02T19:35:28.597Z,42.20
2023-05-02T19:40:31.982Z,42.70
2023-05-02T19:45:35.201Z,42.53
2023-05-02T19:50:39.524Z,42.63
2023-05-02T19:55:42.461Z,41.88
2023-05-02T20:00:46.066Z,41.75
2023-05-02T20:05:50.888Z,42.10
2023-05-02T20:10:53.728Z,41.08
2023-05-02T20:15:58.600Z,40.83
2023-05-02T20:21:02.817Z,41.47
2023-05-02T20:26:05.683Z,42.42
2023-05-02T20:31:08.519Z,41.88
2023-05-02T20:36:13.411Z,41.60
2023-05-02T20:41:17.650Z,41.22
2023-05-02T20:46:21.125Z,40.70
2023-05-02T20:51:28.171Z,41.15
2023-05-02T20:56:31.124Z,41.22
2023-05-02T21:01:34.356Z,42.78
2023-05-02T21:06:38.821Z,41.47
2023-05-02T21:11:41.710Z,41.90
2023-05-02T21:16:44.560Z,42.10
2023-05-02T21:21:49.052Z,41.78
2023-05-02T21:26:51.964Z,43.55
2023-05-02T21:31:55.079Z,41.10
2023-05-02T21:36:59.986Z,41.90
2023-05-02T21:42:02.818Z,42.95
2023-05-02T21:47:05.766Z,41.67
2023-05-02T21:52:10.068Z,40.45
2023-05-02T21:57:35.754Z,42.80
2023-05-02T22:02:38.721Z,41.60
2023-05-02T22:07:43.014Z,41.97
2023-05-02T22:12:46.369Z,41.72
2023-05-02T22:17:49.294Z,42.47
2023-05-02T22:22:53.531Z,40.83
2023-05-02T22:27:56.602Z,43.40
2023-05-02T22:32:59.469Z,42.05
2023-05-02T22:38:06.138Z,43.53
2023-05-02T22:43:09.086Z,41.30
2023-05-02T22:48:12.563Z,42.63
2023-05-02T22:53:16.984Z,40.97
2023-05-02T22:58:19.836Z,43.60
2023-05-02T23:03:22.889Z,41.72
2023-05-02T23:08:27.227Z,45.03
2023-05-02T23:13:30.114Z,43.45
2023-05-02T23:18:32.984Z,42.97
2023-05-02T23:23:37.168Z,41.83
2023-05-02T23:28:40.795Z,45.17
2023-05-02T23:33:43.719Z,41.88
2023-05-02T23:38:47.976Z,44.72
2023-05-02T23:43:50.931Z,41.85
2023-05-02T23:48:53.888Z,44.95
2023-05-02T23:53:58.116Z,41.53
2023-05-02T23:59:00.983Z,41.47
